LEAMLEVC

Guest
Details From LEAM - Almeria
To LEVC - Valencia
Flight Number -
Tags Generated
Created
Modified
Stats Distance 183 nm / 338 km
Max Altitude 0 ft / 0 m
Waypoints 2
Social Downloads 3
Likes 0
Share VATSIM

Download

Looking for another format? Having issues loading an existing format? Contact us
Advertisement - Login to hide

Notes

Generated

Route

LEAM LEVC

ID Type Via Altitude Latitude Longitude Leg Dist Tot Dist Heading (true) Name
O LEAM APT - 0 ft / 0 m 36.83972˚ -2.38726˚ - 0 nm - -
O LEVC APT - 0 ft / 0 m 39.49655˚ -0.50070˚ 182 nm 182 nm 29° / 30° -

Altitude Profile

Advertisement - Login to hide

Weather


0- 5 10 15 20 25 30 35+ Temperature / ° C

Clouds and Precipitation
Forecast for 2018-05-24 18:00 UTC. Updated 5 hours ago

Ground ~20,000 ft ~40,000 ft Winds

LEAM

Details ICAO LEAM (LEI)
Name Almeria
Region Spain
Timezone Unknown (UTC+0.0)
Stats Elevation 70 ft / 21 m (AMSL)
Location 36.843935° -2.370097°
Runways 1
Magnetic Variation 0.239° W

METAR

LEAM 242130Z AUTO 09003KT 060V140 9999 NCD 20/15 Q1011

Decode

TAF

TAF TAF LEAM 242000Z 2421/2521 25006KT 9999 FEW030 TX25/2514Z TN17/2506Z BECMG 2507/2509 24018KT TEMPO 2510/2519 23020G32KT

Decode

Departure Runways

ID Width Length Bearing (true) Bearing (mag) Surface Threshold Offset Overrun Length
08 148 ft / 45 m 10,484 ft / 3,196 m 72.94° 73.18° Asphalt 492 ft / 150 m 191 ft / 58 m
26 148 ft / 45 m 10,484 ft / 3,196 m 252.96° 253.20° Asphalt 0 ft / 0 m 150 ft / 46 m

LEVC

Details ICAO LEVC (VLC)
Name Valencia
Region Spain
Timezone Europe/Madrid (UTC+2.0)
Stats Elevation 225 ft / 69 m (AMSL)
Location 39.488236° -0.483892°
Runways 2
Magnetic Variation 0.242° E

METAR

LEVC 242130Z 04005KT 350V080 CAVOK 21/13 Q1015 NOSIG

Decode

TAF

TAF LEVC 241700Z 2418/2518 VRB03KT 9999 FEW030 TX24/2512Z TN16/2506Z TEMPO 2418/2420 07008KT BECMG 2504/2506 05009KT

Decode

Destination Runways

ID Width Length Bearing (true) Bearing (mag) Surface Threshold Offset Overrun Length
12 148 ft / 45 m 10,555 ft / 3,217 m 116.25° 116.01° Asphalt 0 ft / 0 m 646 ft / 197 m
22 154 ft / 47 m 3,828 ft / 1,167 m 217.99° 217.75° Asphalt 0 ft / 0 m 0 ft / 0 m
30 148 ft / 45 m 10,555 ft / 3,217 m 296.27° 296.03° Asphalt 1,001 ft / 305 m 932 ft / 284 m
4 154 ft / 47 m 3,828 ft / 1,167 m 37.98° 37.74° Asphalt 0 ft / 0 m 0 ft / 0 m

Approach Navaids

Runway Type Ident Frequency Range Bearing (true) Bearing (mag) Slope Elevation
12 Localiser VLN 111.50 MHz 25 nm / 46 km 116.20° 115.96° - 256 ft / 78 m (AMSL)
12 Glidescope VLN 111.50 MHz 10 nm / 19 km 116.20° 115.96° 3.00° 256 ft / 78 m (AMSL)
12 DME VLN 111.50 MHz 25 nm / 46 km - - - 256 ft / 78 m (AMSL)
30 Localiser IVC 110.10 MHz 18 nm / 33 km 296.19° 295.95° - 225 ft / 69 m (AMSL)
30 Glidescope IVC 110.10 MHz 10 nm / 19 km 296.26° 296.02° 3.00° 225 ft / 69 m (AMSL)
30 DME IVC 110.10 MHz 18 nm / 33 km - - - 203 ft / 62 m (AMSL)

Popular Alternatives